createdAt,value
2023-02-13T11:39:46.042Z,8.54
2023-02-13T11:42:42.794Z,8.56
2023-02-13T11:45:28.465Z,8.60
2023-02-13T11:48:21.987Z,8.72
2023-02-13T11:51:07.591Z,8.79
2023-02-13T11:53:53.012Z,8.86
2023-02-13T11:57:04.014Z,8.97
2023-02-13T11:59:52.388Z,8.92
2023-02-13T12:02:48.061Z,9.02
2023-02-13T12:05:34.548Z,9.07
2023-02-13T12:08:20.345Z,9.10
2023-02-13T12:11:27.791Z,9.17
2023-02-13T12:14:19.798Z,9.22
2023-02-13T12:17:09.592Z,9.31
2023-02-13T12:19:56.967Z,9.34
2023-02-13T12:23:02.618Z,9.32
2023-02-13T12:26:11.234Z,9.35
2023-02-13T12:29:12.820Z,9.26
2023-02-13T12:32:20.395Z,9.16
2023-02-13T12:35:35.576Z,9.23
2023-02-13T12:38:42.805Z,9.30
2023-02-13T12:41:50.142Z,9.29
2023-02-13T12:44:50.522Z,9.28
2023-02-13T12:48:00.427Z,9.06
2023-02-13T12:51:26.828Z,8.89
2023-02-13T12:54:37.224Z,8.91
2023-02-13T12:57:30.704Z,9.02
2023-02-13T13:00:40.221Z,8.98
2023-02-13T13:04:00.457Z,8.92
2023-02-13T13:06:49.095Z,8.88
2023-02-13T13:09:40.374Z,8.94
2023-02-13T13:12:47.907Z,8.97
2023-02-13T13:15:55.213Z,8.95
2023-02-13T13:18:59.771Z,8.98
2023-02-13T13:22:11.199Z,9.03
2023-02-13T13:25:19.107Z,9.01
2023-02-13T13:28:14.388Z,9.00
2023-02-13T13:31:01.138Z,8.87
2023-02-13T13:33:48.051Z,8.81
2023-02-13T13:36:58.202Z,8.75
2023-02-13T13:39:47.586Z,8.75
2023-02-13T13:42:41.337Z,8.73
2023-02-13T13:45:44.179Z,8.72
2023-02-13T13:48:53.909Z,8.71
2023-02-13T13:51:39.332Z,8.68
2023-02-13T13:54:32.453Z,8.72
2023-02-13T13:57:23.051Z,8.68
2023-02-13T14:00:08.425Z,8.64
2023-02-13T14:03:22.307Z,8.65
2023-02-13T14:06:13.177Z,8.66
2023-02-13T14:09:04.339Z,8.68
2023-02-13T14:11:49.740Z,8.71
2023-02-13T14:14:44.821Z,8.71
2023-02-13T14:17:45.584Z,8.69
2023-02-13T14:20:38.249Z,8.73
2023-02-13T14:23:52.537Z,8.72
2023-02-13T14:26:40.382Z,8.71
2023-02-13T14:29:32.733Z,8.69
2023-02-13T14:32:31.188Z,8.68
2023-02-13T14:35:23.180Z,8.71
2023-02-13T14:38:23.908Z,8.73
2023-02-13T14:41:43.119Z,8.73
2023-02-13T14:44:41.316Z,8.68
2023-02-13T14:47:32.162Z,8.59
2023-02-13T14:50:28.754Z,8.58
2023-02-13T14:53:58.149Z,8.56
2023-02-13T14:56:46.407Z,8.57
2023-02-13T14:59:37.154Z,8.54
2023-02-13T15:02:29.419Z,8.53
2023-02-13T15:05:20.762Z,8.52
2023-02-13T15:08:13.594Z,8.48
2023-02-13T15:10:59.512Z,8.47
2023-02-13T15:13:45.176Z,8.48
2023-02-13T15:16:30.487Z,8.46
2023-02-13T15:19:18.428Z,8.42
2023-02-13T15:22:06.717Z,8.43
2023-02-13T15:24:52.603Z,8.35
2023-02-13T15:27:42.750Z,8.32
2023-02-13T15:30:36.148Z,8.32
2023-02-13T15:33:24.481Z,8.29
2023-02-13T15:36:18.994Z,8.27
2023-02-13T15:39:09.800Z,8.28
2023-02-13T15:42:01.422Z,8.27
2023-02-13T15:44:55.239Z,8.30
2023-02-13T15:47:40.992Z,8.34
2023-02-13T15:50:35.853Z,8.31
2023-02-13T15:53:21.619Z,8.26
2023-02-13T15:56:14.844Z,8.25
2023-02-13T15:59:01.469Z,8.24
2023-02-13T16:01:49.341Z,8.16
2023-02-13T16:04:36.322Z,8.13
2023-02-13T16:07:22.088Z,8.10
2023-02-13T16:10:26.000Z,8.13
2023-02-13T16:13:18.701Z,8.10
2023-02-13T16:16:10.053Z,8.09
2023-02-13T16:18:55.499Z,8.09
2023-02-13T16:21:40.720Z,8.08
2023-02-13T16:24:27.078Z,8.10
2023-02-13T16:27:15.227Z,8.13
2023-02-13T16:30:06.647Z,8.13
2023-02-13T16:32:52.021Z,8.09
2023-02-13T16:35:40.768Z,8.10
2023-02-13T16:38:28.671Z,8.13
2023-02-13T16:41:17.186Z,8.13
2023-02-13T16:44:05.938Z,8.16
2023-02-13T16:46:54.963Z,8.20
2023-02-13T16:49:40.207Z,8.23
2023-02-13T16:52:28.897Z,8.19
2023-02-13T16:55:17.464Z,8.18
2023-02-13T16:58:04.986Z,8.17
2023-02-13T17:00:51.342Z,8.09
2023-02-13T17:03:36.747Z,8.07
2023-02-13T17:06:24.878Z,8.05
2023-02-13T17:09:10.018Z,8.07
2023-02-13T17:11:55.440Z,8.06
2023-02-13T17:14:41.027Z,8.02
2023-02-13T17:17:29.976Z,8.02
2023-02-13T17:20:24.466Z,8.00
2023-02-13T17:23:20.731Z,8.02
2023-02-13T17:26:06.450Z,8.01
2023-02-13T17:28:51.595Z,8.03
2023-02-13T17:31:37.391Z,7.99
2023-02-13T17:34:23.209Z,7.99
2023-02-13T17:37:18.732Z,7.99
2023-02-13T17:40:04.213Z,8.00
2023-02-13T17:42:54.809Z,8.01
2023-02-13T17:45:40.560Z,8.04
2023-02-13T17:48:25.896Z,8.11
2023-02-13T17:51:14.041Z,8.11
2023-02-13T17:53:59.147Z,8.07
2023-02-13T17:56:44.487Z,8.08
2023-02-13T17:59:30.074Z,8.09
2023-02-13T18:02:18.344Z,8.09
2023-02-13T18:05:03.545Z,8.00
2023-02-13T18:07:49.958Z,8.00
2023-02-13T18:10:37.053Z,8.00
2023-02-13T18:13:22.088Z,8.00
2023-02-13T18:16:09.017Z,7.98
2023-02-13T18:18:56.242Z,7.98
2023-02-13T18:21:41.656Z,7.98
2023-02-13T18:24:31.543Z,7.94
2023-02-13T18:27:17.981Z,7.93
2023-02-13T18:30:04.333Z,7.90
2023-02-13T18:32:55.557Z,7.88
2023-02-13T18:35:41.027Z,7.81
2023-02-13T18:38:26.519Z,7.78
2023-02-13T18:41:11.872Z,7.75
2023-02-13T18:43:57.940Z,7.75
2023-02-13T18:46:46.753Z,7.81
2023-02-13T18:49:34.159Z,7.82
2023-02-13T18:52:19.956Z,7.86
2023-02-13T18:55:07.261Z,7.85
2023-02-13T18:57:53.070Z,7.86
2023-02-13T19:00:38.499Z,7.76
2023-02-13T19:03:23.964Z,7.68
2023-02-13T19:06:12.679Z,7.67
2023-02-13T19:08:59.021Z,7.66
2023-02-13T19:11:51.560Z,7.65
2023-02-13T19:14:36.814Z,7.64
2023-02-13T19:17:22.529Z,7.70
2023-02-13T19:20:08.793Z,7.70
2023-02-13T19:22:55.328Z,7.69
2023-02-13T19:25:40.274Z,7.66
2023-02-13T19:28:25.770Z,7.59
2023-02-13T19:31:20.599Z,7.52
2023-02-13T19:34:06.830Z,7.48
2023-02-13T19:36:51.973Z,7.47
2023-02-13T19:39:37.154Z,7.52
2023-02-13T19:42:22.562Z,7.45
2023-02-13T19:45:08.696Z,7.38
2023-02-13T19:47:55.111Z,7.33
2023-02-13T19:50:41.380Z,7.26
2023-02-13T19:53:27.026Z,7.24
2023-02-13T19:56:13.393Z,7.30
2023-02-13T19:58:59.048Z,7.31
2023-02-13T20:01:45.524Z,7.32
2023-02-13T20:04:32.249Z,7.36
2023-02-13T20:07:17.645Z,7.40
2023-02-13T20:10:03.247Z,7.45
2023-02-13T20:12:53.727Z,7.49
2023-02-13T20:15:40.644Z,7.44
2023-02-13T20:18:26.258Z,7.41
2023-02-13T20:21:14.042Z,7.36
2023-02-13T20:23:59.175Z,7.36
2023-02-13T20:26:44.724Z,7.38
2023-02-13T20:29:29.770Z,7.35
2023-02-13T20:32:16.341Z,7.23
2023-02-13T20:35:05.278Z,7.16
2023-02-13T20:37:51.635Z,7.16
2023-02-13T20:40:42.640Z,7.19
2023-02-13T20:43:32.880Z,7.20
2023-02-13T20:46:19.791Z,7.13
2023-02-13T20:49:06.943Z,7.11
2023-02-13T20:51:53.134Z,7.11
2023-02-13T20:54:39.383Z,7.14
2023-02-13T20:57:24.643Z,7.20
2023-02-13T21:00:13.122Z,7.23
2023-02-13T21:03:03.845Z,7.24
2023-02-13T21:05:53.710Z,7.26
2023-02-13T21:08:43.205Z,7.25
2023-02-13T21:11:34.404Z,7.27
2023-02-13T21:14:20.260Z,7.27
2023-02-13T21:17:06.001Z,7.22
2023-02-13T21:19:51.670Z,7.19
2023-02-13T21:22:37.130Z,7.16
2023-02-13T21:25:22.834Z,7.10
2023-02-13T21:28:08.169Z,7.08
2023-02-13T21:30:56.430Z,7.09
2023-02-13T21:33:42.884Z,7.12
2023-02-13T21:36:28.063Z,7.16
2023-02-13T21:39:15.151Z,7.07
2023-02-13T21:42:00.305Z,6.99
2023-02-13T21:44:46.462Z,6.89
2023-02-13T21:47:38.310Z,6.83
2023-02-13T21:50:24.572Z,6.74
2023-02-13T21:53:10.034Z,6.79
2023-02-13T21:55:55.564Z,6.83
2023-02-13T21:58:42.725Z,6.74
2023-02-13T22:01:33.995Z,6.71
2023-02-13T22:04:20.124Z,6.63
2023-02-13T22:07:05.282Z,6.61
2023-02-13T22:09:50.821Z,6.64
2023-02-13T22:12:36.084Z,6.62
2023-02-13T22:15:21.489Z,6.60
2023-02-13T22:18:06.549Z,6.61
2023-02-13T22:20:52.043Z,6.60
2023-02-13T22:23:37.781Z,6.60
2023-02-13T22:26:29.226Z,6.57
2023-02-13T22:29:16.095Z,6.62
2023-02-13T22:32:01.458Z,6.67
2023-02-13T22:34:46.695Z,6.75
2023-02-13T22:37:32.125Z,6.77
2023-02-13T22:40:19.197Z,6.80
2023-02-13T22:43:06.142Z,6.84
2023-02-13T22:45:51.730Z,6.79
2023-02-13T22:48:38.902Z,6.70
2023-02-13T22:51:33.029Z,6.63
2023-02-13T22:54:18.431Z,6.63
2023-02-13T22:57:04.380Z,6.58
2023-02-13T22:59:49.632Z,6.65
2023-02-13T23:02:36.176Z,6.72
2023-02-13T23:05:21.950Z,6.77
2023-02-13T23:08:07.611Z,6.71
2023-02-13T23:11:11.790Z,6.66
2023-02-13T23:13:58.069Z,6.67
2023-02-13T23:17:02.202Z,6.57
2023-02-13T23:19:47.310Z,6.55
2023-02-13T23:22:34.580Z,6.63
2023-02-13T23:25:21.402Z,6.67
2023-02-13T23:28:07.643Z,6.68
2023-02-13T23:30:53.059Z,6.63
2023-02-13T23:33:38.086Z,6.59
2023-02-13T23:36:23.758Z,6.59
2023-02-13T23:39:09.169Z,6.65
2023-02-13T23:41:54.331Z,6.62
2023-02-13T23:44:40.054Z,6.60
2023-02-13T23:47:25.654Z,6.60
2023-02-13T23:50:11.108Z,6.61
2023-02-13T23:52:59.064Z,6.63
2023-02-13T23:55:44.521Z,6.60
2023-02-13T23:58:30.480Z,6.56
